Tomintoul, United Kingdom
Current Conditions -  °F | °C
As of 11:50 AM on Monday 24 Nov 2014 (Local Time) from EGQK Reporting Station
Broken Clouds Broken Clouds  
Wind Chill: 46°   Ceiling: 12000
Heat Index: 48°   Visibility: 6mi
Dew Point: 41°   Wind: 6mph
Humidity: 76%   Direction: 220°SW
Pressure: 30.09"   Gusts: NA
Location:  57.18°N, 3.3°W
Report Text: EGQK 241150Z 22005KT 9999 FEW030 BKN120 09/05 Q1019 BLU
Loading
Personal Weather Stations






























Interactive Weather Map New forecast layout! Learn more

10-Day Weather Forecast

Advertisements
Track Severe Weather on mobile